Airfield :
LOGIN :

Register | Disclaimer

   EN    FR    IT 

 










Legend :    VFR   Marginal VFR   IFR   Intensive IFR   Very Intensive IFR
Visi :
Ceiling :
>= 8 km
>= 3000ft
5 to 8 km
1000 to 3000 ft
1500m to 5 km
500 to 1000 ft
800 to 1500m
200 to 500 ft
< 800m
< 200 ft
Symbols :   Thunderstorms  Fog  Heavy snow  Heavy precipitations  Wind > 20 kt
SIGMETs :     Misc.  Thunderstorms  Icing  Turbulence  Mountain Waves  Volcanic Ashes







- Airport Elevation : 238 ft
- IATA code : FAB
- Download approach charts


EGLF - Farnborough

CURRENT METAR :
  • 221620Z 35005KT CAVOK 11/03 Q1037

EXPIRED METARs :
  • 221550Z 35005KT 310V020 CAVOK 12/03 Q1037
  • 221520Z 34009KT CAVOK 12/03 Q1037
  • 221450Z 35010KT 320V030 CAVOK 13/04 Q1037
  • 221420Z 36009KT 330V030 CAVOK 13/03 Q1037
  • 221350Z 36010KT CAVOK 13/03 Q1037

TAF TAF EGLF
Valid from the 22 at 15:00 until the 22 at 21:00 UTC


221359Z 2215/2221 01010KT CAVOK
BECMG 2218/2221 28005KT
ATIS : +44 09063 800 400 (*282)
No reported NOTAMs for that airfield.
1 SIGMET reported for the London FIR (EGTT) :
 
Severe mountain waves
EGTT SIGMET 02 VALID 221400/221800 EGRR
EGTT LONDON FIR SEV MTW FCST WI N5500 W00530 - N5500 E00006 - N5430 E00006 - N5430 W00220 - N5446 W00530 - N5500 W00530 FL030/240 STNR NC=



MET'MAP, your aeronautical weather chart ! - Copyright ORBIFLY December 2007 - Disclaimer

ORBIFLY MET'MAP TEAM :

Programming & Development : Alexandra Zaïnal
Concept & Development : Baudouin d'Aumeries
Co-Development & Prog : Marc-Olivier Méhu
Technical & hardware support : Manuel Goepfert

Contact : metmap@orbifly.com




SOURCES & CREDITS :

   NOAA